Flight Track Log - Related Links

Times and Time Zones

All times are in EDT time to prevent confusion due to time zone crossing. See the DAL268 flight status page for this flight to view local times or setup timezone preferences in your user account.

Time Position Orientation Groundspeed Altitude Reporting Facility
EDT Latitude Longitude Course Direction KTS MPH feet Rate Location/Type
Tue 02:29:01 PM 37.6130 -122.3770 90° East 120 138  Level FlightAware ADS-B
Tue 02:29:29 PM 37.6320 -122.3640 28° Northeast 172 198 600 1,538 Climbing FlightAware ADS-B
Tue 02:29:40 PM 37.6395 -122.3580 32° Northeast 177 204 1,000 2,250 Climbing FlightAware ADS-B
Tue 02:29:45 PM 37.6426 -122.3540 46° Northeast 184 212 1,200 2,000 Climbing FlightAware ADS-B
Tue 02:29:55 PM 37.6485 -122.3460 47° Northeast 193 222 1,500 1,909 Climbing FlightAware ADS-B
Tue 02:30:07 PM 37.6564 -122.3350 48° Northeast 207 238 1,900 1,778 Climbing FlightAware ADS-B
Tue 02:30:22 PM 37.6669 -122.3210 47° Northeast 228 262 2,300 2,000 Climbing FlightAware ADS-B
Tue 02:30:40 PM 37.6800 -122.3030 47° Northeast 242 278 3,000 2,182 Climbing FlightAware ADS-B
Tue 02:30:55 PM 37.6925 -122.2870 45° Northeast 262 302 3,500 2,118 Climbing FlightAware ADS-B
Tue 02:31:14 PM 37.7089 -122.2660 45° Northeast 274 315 4,200 2,471 Climbing FlightAware ADS-B
Tue 02:31:29 PM 37.7229 -122.2490 44° Northeast 279 321 4,900 2,842 Climbing FlightAware ADS-B
Tue 02:31:33 PM 37.7271 -122.2450 37° Northeast 285 328 5,100 2,824 Climbing FlightAware ADS-B
Tue 02:31:46 PM 37.7430 -122.2380 19° North 288 331 5,700 2,900 Climbing FlightAware ADS-B
Tue 02:32:33 PM 37.8060 -122.2300 North 295 339 8,000 2,943 Climbing FlightAware ADS-B
Tue 02:32:39 PM 37.8153 -122.2270 14° North 293 337 8,300 2,870 Climbing FlightAware ADS-B
Tue 02:32:56 PM 37.8354 -122.2130 29° Northeast 295 339 9,100 2,600 Climbing FlightAware ADS-B
Tue 02:33:09 PM 37.8503 -122.2010 32° Northeast 300 345 9,600 2,526 Climbing FlightAware ADS-B
Tue 02:33:15 PM 37.8573 -122.1950 34° Northeast 301 346 9,900 1,909 Climbing FlightAware ADS-B
Tue 02:33:31 PM 37.8733 -122.1760 43° Northeast 310 357 10,300 1,579 Climbing FlightAware ADS-B
Tue 02:33:34 PM 37.8763 -122.1710 53° Northeast 314 361 10,400 1,500 Climbing FlightAware ADS-B
Tue 02:33:39 PM 37.8800 -122.1620 62° Northeast 317 365 10,500 1,500 Climbing FlightAware ADS-B
Tue 02:33:46 PM 37.8836 -122.1510 67° East 320 368 10,700 1,636 Climbing FlightAware ADS-B
Tue 02:33:50 PM 37.8855 -122.1430 73° East 322 371 10,800 2,333 Climbing FlightAware ADS-B
Tue 02:34:22 PM 37.8955 -122.0840 78° East 328 377 12,100 2,476 Climbing FlightAware ADS-B
Tue 02:34:53 PM 37.9050 -122.0250 78° East 334 384 13,400 2,476 Climbing FlightAware ADS-B
Tue 02:35:25 PM 37.9155 -121.9630 78° East 341 392 14,700 2,476 Climbing FlightAware ADS-B
Tue 02:35:56 PM 37.9258 -121.9030 78° East 346 398 16,000 2,520 Climbing FlightAware ADS-B
Tue 02:36:15 PM 37.9324 -121.8650 78° East 349 402 16,800 2,520 Climbing FlightAware ADS-B
Tue 02:36:46 PM 37.9500 -121.8050 70° East 355 409 18,100 2,344 Climbing FlightAware ADS-B
Tue 02:37:19 PM 37.9710 -121.7430 67° East 359 413 19,300 2,156 Climbing FlightAware ADS-B
Tue 02:37:50 PM 37.9925 -121.6820 66° East 368 423 20,400 1,810 Climbing FlightAware ADS-B
Tue 02:38:22 PM 38.0147 -121.6180 66° East 377 434 21,200 1,130 Climbing FlightAware ADS-B
Tue 02:38:59 PM 38.0418 -121.5390 66° East 403 464 21,700 806 Climbing FlightAware ADS-B
Tue 02:39:29 PM 38.0649 -121.4700 67° East 430 495 22,100 1,082 Climbing FlightAware ADS-B
Tue 02:40:00 PM 38.0885 -121.3970 68° East 442 509 22,800 1,500 Climbing FlightAware ADS-B
Tue 02:40:29 PM 38.1100 -121.3250 69° East 446 513 23,600 1,645 Climbing FlightAware ADS-B
Tue 02:41:02 PM 38.1287 -121.2420 74° East 451 519 24,500 1,500 Climbing FlightAware ADS-B
Tue 02:41:33 PM 38.1442 -121.1640 76° East 455 524 25,200 1,355 Climbing FlightAware ADS-B
Tue 02:42:04 PM 38.1597 -121.0810 77° East 464 534 25,900 1,421 Climbing FlightAware ADS-B
Tue 02:42:49 PM 38.1824 -120.9600 77° East 468 539 27,000 1,364 Climbing FlightAware ADS-B
Tue 02:43:32 PM 38.2030 -120.8480 77° East 475 547 27,900 1,214 Climbing FlightAware ADS-B
Tue 02:44:13 PM 38.2230 -120.7390 77° East 480 552 28,700 1,297 Climbing FlightAware ADS-B
Tue 02:44:46 PM 38.2410 -120.6470 76° East 480 552 29,500 1,478 Climbing FlightAware ADS-B
Tue 02:45:22 PM 38.2590 -120.5470 77° East 481 554 30,400 1,397 Climbing FlightAware ADS-B
Tue 02:45:59 PM 38.2770 -120.4460 77° East 483 556 31,200 1,200 Climbing FlightAware ADS-B
Tue 02:46:42 PM 38.3000 -120.3250 76° East 486 559 32,000 1,169 Climbing FlightAware ADS-B
Tue 02:47:16 PM 38.3170 -120.2300 77° East 487 560 32,700 1,200 Climbing FlightAware ADS-B
Tue 02:47:52 PM 38.3350 -120.1290 77° East 490 564 33,400 1,083 Climbing FlightAware ADS-B
Tue 02:48:28 PM 38.3530 -120.0290 77° East 492 566 34,000 1,043 Climbing FlightAware ADS-B
Tue 02:49:01 PM 38.3690 -119.9380 77° East 491 565 34,600 1,108 Climbing FlightAware ADS-B
Tue 02:49:33 PM 38.3860 -119.8450 77° East 492 566 35,200 1,000 Climbing FlightAware ADS-B
Tue 02:50:07 PM 38.4030 -119.7480 77° East 492 566 35,700 1,000 Climbing FlightAware ADS-B
Tue 02:50:45 PM 38.4210 -119.6420 78° East 489 563 36,400 1,054 Climbing FlightAware ADS-B
Tue 02:51:21 PM 38.4400 -119.5370 77° East 487 560 37,000 514 Climbing FlightAware ADS-B
Tue 02:51:55 PM 38.4560 -119.4460 77° East 483 556 37,000  Level FlightAware ADS-B
Tue 02:52:32 PM 38.4730 -119.3440 78° East 483 556 37,000  Level FlightAware ADS-B
Tue 02:53:08 PM 38.4910 -119.2430 77° East 486 559 37,000  Level FlightAware ADS-B
Tue 02:53:31 PM 38.5010 -119.1770 79° East 485 558 37,000  Level FlightAware ADS-B
Tue 02:54:17 PM 38.5160 -119.0460 82° East 485 558 37,000  Level FlightAware ADS-B
Tue 02:54:53 PM 38.5260 -118.9440 83° East 484 557 37,000  Level FlightAware ADS-B
Tue 02:55:31 PM 38.5370 -118.8400 82° East 483 556 37,000  Level FlightAware ADS-B
Tue 02:56:16 PM 38.5490 -118.7230 82° East 483 556 37,000  Level FlightAware ADS-B
Tue 02:56:49 PM 38.5580 -118.6190 84° East 481 554 37,000  Level FlightAware ADS-B
Tue 02:57:27 PM 38.5690 -118.5090 83° East 482 555 37,000  Level FlightAware ADS-B
Tue 02:58:01 PM 38.5780 -118.4150 83° East 480 552 37,000  Level FlightAware ADS-B
Tue 02:58:31 PM 38.5860 -118.3310 83° East 477 549 37,000  Level FlightAware ADS-B
Tue 02:59:11 PM 38.5960 -118.2190 83° East 478 550 37,000  Level FlightAware ADS-B
Tue 02:59:35 PM 38.6030 -118.1510 82° East 480 552 37,000  Level FlightAware ADS-B
Tue 02:59:55 PM 38.6080 -118.0960 83° East 481 554 37,000  Level FlightAware ADS-B
Tue 02:59:59 PM 38.6090 -118.0850 83° East 481 554 37,000  Level FlightAware ADS-B
Tue 03:02:46 PM 38.6470 -117.6830 83° East 481 554 37,000  Level FlightAware ADS-B
Tue 03:03:23 PM 38.6560 -117.5940 83° East 481 554 37,000  Level FlightAware ADS-B
Tue 03:04:00 PM 38.6640 -117.5050 83° East 481 554 37,000  Level FlightAware ADS-B
Tue 03:04:36 PM 38.6730 -117.4180 82° East 481 554 37,000  Level FlightAware ADS-B
Tue 03:05:01 PM 38.6780 -117.3580 84° East 481 554 37,000  Level FlightAware ADS-B
Tue 03:05:59 PM 38.6920 -117.2190 83° East 481 554 37,000  Level FlightAware ADS-B
Tue 03:06:47 PM 38.7030 -117.1030 83° East 481 554 37,000  Level FlightAware ADS-B
Tue 03:07:24 PM 38.7110 -117.0140 83° East 481 554 37,000  Level FlightAware ADS-B
Tue 03:07:58 PM 38.7190 -116.9320 83° East 481 554 37,000  Level FlightAware ADS-B
Tue 03:08:48 PM 38.7310 -116.8120 83° East 481 554 37,000  Level FlightAware ADS-B
Tue 03:09:36 PM 38.7420 -116.6960 83° East 481 554 37,000  Level FlightAware ADS-B
Tue 03:10:41 PM 38.8261 -116.2939 83° East 475 547 37,000  Level Oakland Center
Tue 03:11:43 PM 38.8497 -116.1250 80° East 478 550 37,000  Level Oakland Center
Tue 03:12:41 PM 38.8736 -115.9589 79° East 474 545 37,000  Level Salt Lake Center
Tue 03:13:44 PM 38.8958 -115.7922 80° East 474 545 37,000  Level Salt Lake Center
Tue 03:14:46 PM 38.9197 -115.6256 80° East 473 544 37,000  Level Salt Lake Center
Tue 03:15:49 PM 38.9414 -115.4586 80° East 474 545 37,000  Level Salt Lake Center
Tue 03:16:50 PM 38.9644 -115.2961 80° East 477 549 37,000  Level Salt Lake Center
Tue 03:17:52 PM 38.9875 -115.1261 80° East 481 554 37,000  Level Salt Lake Center
Tue 03:18:54 PM 39.0133 -114.9236 81° East 479 551 37,000  Level Salt Lake Center
Tue 03:19:56 PM 39.0358 -114.7539 80° East 480 552 37,000  Level Salt Lake Center
Tue 03:20:58 PM 39.0578 -114.5831 81° East 482 555 37,000  Level Salt Lake Center
Tue 03:26:24 PM 39.1740 -113.6360 81° East 485 558 37,000  Level FlightAware ADS-B
Tue 03:27:00 PM 39.1860 -113.5320 82° East 485 558 37,000  Level FlightAware ADS-B
Tue 03:27:45 PM 39.2000 -113.4170 81° East 485 558 37,000  Level FlightAware ADS-B
Tue 03:28:31 PM 39.2140 -113.3050 81° East 485 558 37,000  Level FlightAware ADS-B
Tue 03:29:08 PM 39.2250 -113.2150 81° East 485 558 37,000  Level FlightAware ADS-B
Tue 03:29:45 PM 39.2360 -113.1250 81° East 485 558 37,000  Level FlightAware ADS-B
Tue 03:30:04 PM 39.2469 -113.0050 83° East 487 560 37,000  Level FlightAware ADS-B
Tue 03:30:39 PM 39.2581 -112.9060 82° East 486 559 37,000  Level FlightAware ADS-B
Tue 03:31:09 PM 39.2677 -112.8200 82° East 486 559 37,000  Level FlightAware ADS-B
Tue 03:31:41 PM 39.2779 -112.7280 82° East 486 559 37,000  Level FlightAware ADS-B
Tue 03:32:16 PM 39.2890 -112.6270 82° East 488 562 37,000  Level FlightAware ADS-B
Tue 03:32:38 PM 39.2960 -112.5640 82° East 490 564 37,000  Level FlightAware ADS-B
Tue 03:33:00 PM 39.3081 -112.5000 76° East 495 570 37,000  Level FlightAware ADS-B
Tue 03:33:21 PM 39.3254 -112.4430 69° East 499 574 37,000  Level FlightAware ADS-B
Tue 03:33:52 PM 39.3554 -112.3590 65° Northeast 503 579 37,000  Level FlightAware ADS-B
Tue 03:34:23 PM 39.3863 -112.2760 64° Northeast 507 583 37,000  Level FlightAware ADS-B
Tue 03:34:55 PM 39.4188 -112.1890 64° Northeast 508 585 37,000  Level FlightAware ADS-B
Tue 03:35:37 PM 39.4612 -112.0740 64° Northeast 508 585 37,000  Level FlightAware ADS-B
Tue 03:36:08 PM 39.4920 -111.9890 65° Northeast 508 585 37,000  Level FlightAware ADS-B
Tue 03:36:22 PM 39.5064 -111.9500 64° Northeast 509 586 37,000  Level FlightAware ADS-B
Tue 03:36:57 PM 39.5414 -111.8540 65° Northeast 510 587 37,000  Level FlightAware ADS-B
Tue 03:37:27 PM 39.5717 -111.7700 65° Northeast 513 590 37,000  Level FlightAware ADS-B
Tue 03:38:00 PM 39.6048 -111.6780 65° Northeast 514 592 37,000  Level FlightAware ADS-B
Tue 03:38:30 PM 39.6349 -111.5940 65° Northeast 513 590 37,000  Level FlightAware ADS-B
Tue 03:39:01 PM 39.6653 -111.5100 65° Northeast 510 587 37,000  Level FlightAware ADS-B
Tue 03:39:35 PM 39.6993 -111.4140 65° Northeast 510 587 37,000  Level FlightAware ADS-B
Tue 03:40:07 PM 39.7312 -111.3250 65° Northeast 510 587 37,000  Level FlightAware ADS-B
Tue 03:40:38 PM 39.7611 -111.2410 65° Northeast 511 588 37,000  Level FlightAware ADS-B
Tue 03:41:09 PM 39.7920 -111.1540 65° Northeast 511 588 37,000  Level FlightAware ADS-B
Tue 03:41:39 PM 39.8218 -111.0690 65° Northeast 514 592 37,000  Level FlightAware ADS-B
Tue 03:42:09 PM 39.8518 -110.9840 65° Northeast 516 594 37,000  Level FlightAware ADS-B
Tue 03:42:40 PM 39.8820 -110.8980 65° Northeast 516 594 37,000  Level FlightAware ADS-B
Tue 03:43:13 PM 39.9150 -110.8040 65° Northeast 515 593 37,000  Level FlightAware ADS-B
Tue 03:43:43 PM 39.9446 -110.7190 66° East 514 592 37,000  Level FlightAware ADS-B
Tue 03:44:21 PM 39.9800 -110.6160 66° East 513 590 37,000  Level FlightAware ADS-B
Tue 03:44:53 PM 40.0120 -110.5260 65° Northeast 513 590 37,000  Level FlightAware ADS-B
Tue 03:45:33 PM 40.0510 -110.4130 66° East 514 592 37,000  Level FlightAware ADS-B
Tue 03:46:03 PM 40.0760 -110.3400 66° East 517 595 37,000  Level FlightAware ADS-B
Tue 03:46:43 PM 40.1170 -110.2200 66° East 517 595 37,000  Level FlightAware ADS-B
Tue 03:47:16 PM 40.1490 -110.1230 67° East 513 590 37,000  Level FlightAware ADS-B
Tue 03:47:50 PM 40.1750 -110.0380 68° East 510 587 37,000  Level FlightAware ADS-B
Tue 03:48:26 PM 40.2080 -109.9260 69° East 508 585 37,000  Level FlightAware ADS-B
Tue 03:49:01 PM 40.2390 -109.8190 69° East 509 586 37,000  Level FlightAware ADS-B
Tue 03:49:33 PM 40.2630 -109.7380 69° East 512 589 37,000  Level FlightAware ADS-B
Tue 03:50:14 PM 40.2930 -109.6310 70° East 511 588 37,000  Level FlightAware ADS-B
Tue 03:50:55 PM 40.3300 -109.5030 69° East 512 589 37,000  Level FlightAware ADS-B
Tue 03:51:26 PM 40.3580 -109.4060 69° East 511 588 37,000  Level FlightAware ADS-B
Tue 03:52:10 PM 40.3950 -109.2760 69° East 510 587 37,000  Level FlightAware ADS-B
Tue 03:52:41 PM 40.4220 -109.1810 70° East 511 588 37,000  Level FlightAware ADS-B
Tue 03:53:20 PM 40.4480 -109.0900 69° East 511 588 37,000  Level FlightAware ADS-B
Tue 03:53:59 PM 40.4860 -108.9560 70° East 510 587 37,000  Level FlightAware ADS-B
Tue 03:54:28 PM 40.5090 -108.8720 70° East 509 586 37,000  Level FlightAware ADS-B
Tue 03:55:06 PM 40.5360 -108.7750 70° East 510 587 37,000  Level FlightAware ADS-B
Tue 03:55:39 PM 40.5670 -108.6650 70° East 511 588 37,000  Level FlightAware ADS-B
Tue 03:56:14 PM 40.5950 -108.5630 70° East 510 587 37,000  Level FlightAware ADS-B
Tue 03:56:51 PM 40.6230 -108.4620 70° East 508 585 37,000  Level FlightAware ADS-B
Tue 03:57:20 PM 40.6470 -108.3740 70° East 509 586 37,000  Level FlightAware ADS-B
Tue 03:57:57 PM 40.6780 -108.2630 70° East 511 588 37,000  Level FlightAware ADS-B
Tue 03:58:36 PM 40.7080 -108.1510 71° East 510 587 37,000  Level FlightAware ADS-B
Tue 03:59:11 PM 40.7360 -108.0480 70° East 511 588 37,000  Level FlightAware ADS-B
Tue 03:59:44 PM 40.7620 -107.9520 70° East 512 589 37,000  Level FlightAware ADS-B
Tue 03:59:59 PM 40.7740 -107.9090 70° East 512 589 37,000  Level FlightAware ADS-B
Tue 04:01:18 PM 40.8290 -107.7020 71° East 512 589 37,000  Level FlightAware ADS-B
Tue 04:02:04 PM 40.8720 -107.5430 70° East 510 587 37,000  Level FlightAware ADS-B
Tue 04:02:43 PM 40.8990 -107.4460 70° East 510 587 37,000  Level FlightAware ADS-B
Tue 04:03:21 PM 40.9250 -107.3510 70° East 510 587 37,000  Level FlightAware ADS-B
Tue 04:04:12 PM 40.9590 -107.2230 71° East 510 587 37,000  Level FlightAware ADS-B
Tue 04:04:48 PM 40.9840 -107.1340 70° East 510 587 37,000  Level FlightAware ADS-B
Tue 04:05:25 PM 41.0100 -107.0410 70° East 510 587 37,000  Level FlightAware ADS-B
Tue 04:06:01 PM 41.0340 -106.9510 71° East 510 587 37,000  Level FlightAware ADS-B
Tue 04:06:39 PM 41.0850 -106.7270 73° East 516 594 37,000  Level FlightAware ADS-B
Tue 04:07:09 PM 41.1080 -106.6350 72° East 517 595 37,000  Level FlightAware ADS-B
Tue 04:07:51 PM 41.1360 -106.5290 71° East 517 595 37,000  Level FlightAware ADS-B
Tue 04:08:39 PM 41.1680 -106.4070 71° East 517 595 37,000  Level FlightAware ADS-B
Tue 04:09:08 PM 41.1990 -106.2800 72° East 518 596 37,000  Level FlightAware ADS-B
Tue 04:09:49 PM 41.2300 -106.1540 72° East 520 598 37,000  Level FlightAware ADS-B
Tue 04:10:19 PM 41.2530 -106.0640 71° East 523 602 37,000  Level FlightAware ADS-B
Tue 04:10:55 PM 41.2800 -105.9550 72° East 524 603 37,000  Level FlightAware ADS-B
Tue 04:11:43 PM 41.3140 -105.8160 72° East 525 604 37,000  Level FlightAware ADS-B
Tue 04:12:19 PM 41.3440 -105.6950 72° East 523 602 37,000  Level FlightAware ADS-B
Tue 04:12:47 PM 41.3660 -105.6110 71° East 524 603 37,000  Level FlightAware ADS-B
Tue 04:13:27 PM 41.3980 -105.4900 71° East 524 603 37,000  Level FlightAware ADS-B
Tue 04:14:01 PM 41.4240 -105.3880 71° East 525 604 37,000  Level FlightAware ADS-B
Tue 04:14:37 PM 41.4530 -105.2770 71° East 526 605 37,000  Level FlightAware ADS-B
Tue 04:14:50 PM 41.4630 -105.2360 72° East 528 608 37,000  Level FlightAware ADS-B
Tue 04:15:20 PM 41.4866 -105.1440 71° East 529 609 37,000  Level FlightAware ADS-B
Tue 04:15:51 PM 41.5103 -105.0500 71° East 525 604 37,000  Level FlightAware ADS-B
Tue 04:16:21 PM 41.5336 -104.9570 71° East 521 600 37,000  Level FlightAware ADS-B
Tue 04:16:51 PM 41.5565 -104.8660 71° East 519 597 37,000  Level FlightAware ADS-B
Tue 04:17:22 PM 41.5803 -104.7710 71° East 522 601 37,000  Level FlightAware ADS-B
Tue 04:17:53 PM 41.6040 -104.6760 72° East 521 600 37,000  Level FlightAware ADS-B
Tue 04:18:24 PM 41.6269 -104.5840 72° East 522 601 37,000  Level FlightAware ADS-B
Tue 04:18:54 PM 41.6498 -104.4920 72° East 527 606 37,000  Level FlightAware ADS-B
Tue 04:19:24 PM 41.6728 -104.3980 72° East 527 606 37,000  Level FlightAware ADS-B
Tue 04:19:55 PM 41.6967 -104.3010 72° East 528 608 37,000  Level FlightAware ADS-B
Tue 04:20:26 PM 41.7197 -104.2070 72° East 527 606 37,000  Level FlightAware ADS-B
Tue 04:20:57 PM 41.7429 -104.1120 72° East 525 604 37,000  Level FlightAware ADS-B
Tue 04:21:27 PM 41.7659 -104.0180 72° East 526 605 37,000  Level FlightAware ADS-B
Tue 04:21:57 PM 41.7884 -103.9250 72° East 527 606 37,000  Level FlightAware ADS-B
Tue 04:22:28 PM 41.8111 -103.8310 72° East 528 608 37,000  Level FlightAware ADS-B
Tue 04:22:58 PM 41.8336 -103.7360 72° East 527 606 37,000  Level FlightAware ADS-B
Tue 04:23:33 PM 41.8594 -103.6280 72° East 526 605 37,000  Level FlightAware ADS-B
Tue 04:24:04 PM 41.8821 -103.5310 73° East 526 605 37,000  Level FlightAware ADS-B
Tue 04:24:23 PM 41.8940 -103.4720 75° East 528 608 37,000  Level FlightAware ADS-B
Tue 04:24:57 PM 41.9112 -103.3630 78° East 528 608 37,000  Level FlightAware ADS-B
Tue 04:25:29 PM 41.9259 -103.2600 79° East 527 606 37,000  Level FlightAware ADS-B
Tue 04:26:01 PM 41.9404 -103.1560 79° East 528 608 37,000  Level FlightAware ADS-B
Tue 04:26:35 PM 41.9552 -103.0470 80° East 531 611 37,000  Level FlightAware ADS-B
Tue 04:27:06 PM 41.9692 -102.9460 79° East 531 611 37,000  Level FlightAware ADS-B
Tue 04:27:49 PM 41.9879 -102.8080 80° East 530 610 37,000  Level FlightAware ADS-B
Tue 04:28:20 PM 42.0015 -102.7080 80° East 528 608 37,000  Level FlightAware ADS-B
Tue 04:28:50 PM 42.0146 -102.6110 80° East 529 609 37,000  Level FlightAware ADS-B
Tue 04:29:22 PM 42.0284 -102.5080 80° East 529 609 37,000  Level FlightAware ADS-B
Tue 04:30:04 PM 42.0466 -102.3700 80° East 531 611 37,000  Level FlightAware ADS-B
Tue 04:30:36 PM 42.0602 -102.2680 80° East 532 612 37,000  Level FlightAware ADS-B
Tue 04:31:07 PM 42.0730 -102.1690 80° East 530 610 37,000  Level FlightAware ADS-B
Tue 04:32:01 PM 42.0959 -101.9920 80° East 528 608 37,000  Level FlightAware ADS-B
Tue 04:32:51 PM 42.1139 -101.8467 80° East 528 608 37,000  Level Minneapolis Center
Tue 04:33:53 PM 42.1383 -101.6533 80° East 526 605 37,000  Level Minneapolis Center
Tue 04:34:55 PM 42.1622 -101.4583 81° East 526 605 37,000  Level Minneapolis Center
Tue 04:35:35 PM 42.1731 -101.3772 80° East 526 605 37,000 353 Level Denver Center
Tue 04:36:37 PM 42.2039 -101.1256 81° East 531 611 37,600 774 Climbing Denver Center
Tue 04:37:39 PM 42.2294 -100.9081 81° East 527 606 38,600 677 Climbing Denver Center
Tue 04:38:41 PM 42.2508 -100.7256 81° East 517 595 39,000 194 Climbing Denver Center
Tue 04:39:43 PM 42.2769 -100.5097 81° East 519 597 39,000  Level Denver Center
Tue 04:40:45 PM 42.2975 -100.3231 81° East 523 602 39,000  Level Denver Center
Tue 04:41:47 PM 42.3181 -100.1381 81° East 522 601 39,000  Level Denver Center
Tue 04:42:49 PM 42.3425 -99.9192 81° East 527 606 39,000  Level Denver Center
Tue 04:44:14 PM 42.3694 -99.6708 82° East 524 603 39,000  Level Minneapolis Center
Tue 04:44:54 PM 42.3867 -99.5111 82° East 527 606 39,000  Level Denver Center
Tue 04:46:08 PM 42.4067 -99.3153 82° East 526 605 39,000  Level Denver Center
Tue 04:47:10 PM 42.4314 -99.0825 82° East 520 598 39,000  Level Denver Center
Tue 04:48:22 PM 42.4550 -98.8475 82° East 525 604 39,000  Level Minneapolis Center
Tue 04:49:24 PM 42.4733 -98.6508 83° East 525 604 39,000  Level Minneapolis Center
Tue 04:50:26 PM 42.4836 -98.4528 86° East 526 605 39,000  Level Minneapolis Center
Tue 04:55:51 PM 42.5310 -97.3590 86° East 523 602 39,000  Level FlightAware ADS-B
Tue 04:56:23 PM 42.5350 -97.2500 87° East 524 603 39,000  Level FlightAware ADS-B
Tue 04:56:59 PM 42.5400 -97.1300 87° East 525 604 39,000  Level FlightAware ADS-B
Tue 04:57:35 PM 42.5440 -97.0140 87° East 525 604 39,000  Level FlightAware ADS-B
Tue 04:58:17 PM 42.5490 -96.8770 87° East 526 605 39,000  Level FlightAware ADS-B
Tue 04:58:41 PM 42.5520 -96.7970 87° East 527 606 39,000  Level FlightAware ADS-B
Tue 04:59:21 PM 42.5560 -96.6650 88° East 527 606 39,000  Level FlightAware ADS-B
Tue 04:59:53 PM 42.5600 -96.5630 87° East 528 608 39,000  Level FlightAware ADS-B
Tue 04:59:57 PM 42.5600 -96.5460 90° East 528 608 39,000  Level FlightAware ADS-B
Tue 05:01:07 PM 42.5670 -96.3160 88° East 526 605 39,000  Level FlightAware ADS-B
Tue 05:01:39 PM 42.5710 -96.2110 87° East 526 605 39,000  Level FlightAware ADS-B
Tue 05:02:12 PM 42.5740 -96.1040 88° East 526 605 39,000  Level FlightAware ADS-B
Tue 05:02:47 PM 42.5770 -95.9910 88° East 527 606 39,000  Level FlightAware ADS-B
Tue 05:03:08 PM 42.5790 -95.9150 88° East 528 608 39,000  Level FlightAware ADS-B
Tue 05:04:21 PM 42.5850 -95.6780 88° East 528 608 39,000  Level FlightAware ADS-B
Tue 05:05:00 PM 42.5880 -95.5480 88° East 525 604 39,000  Level FlightAware ADS-B
Tue 05:05:36 PM 42.5910 -95.4290 88° East 525 604 39,000  Level FlightAware ADS-B
Tue 05:06:06 PM 42.5930 -95.3300 88° East 525 604 39,000  Level FlightAware ADS-B
Tue 05:06:46 PM 42.5960 -95.1980 88° East 523 602 39,000  Level FlightAware ADS-B
Tue 05:07:18 PM 42.5980 -95.0950 88° East 523 602 39,000  Level FlightAware ADS-B
Tue 05:07:54 PM 42.6000 -94.9770 89° East 524 603 39,000  Level FlightAware ADS-B
Tue 05:08:30 PM 42.6030 -94.8570 88° East 525 604 39,000  Level FlightAware ADS-B
Tue 05:09:06 PM 42.6050 -94.7400 89° East 526 605 39,000  Level FlightAware ADS-B
Tue 05:09:38 PM 42.6060 -94.6340 89° East 526 605 39,000  Level FlightAware ADS-B
Tue 05:10:16 PM 42.6080 -94.5090 89° East 525 604 39,000  Level FlightAware ADS-B
Tue 05:10:48 PM 42.6100 -94.4030 88° East 526 605 39,000  Level FlightAware ADS-B
Tue 05:10:54 PM 42.6100 -94.3840 90° East 526 605 39,000  Level FlightAware ADS-B
Tue 05:11:53 PM 42.6120 -94.1990 89° East 530 610 39,000  Level FlightAware ADS-B
Tue 05:12:30 PM 42.6130 -94.0660 89° East 529 609 39,000  Level FlightAware ADS-B
Tue 05:13:07 PM 42.6140 -93.9450 89° East 528 608 39,000  Level FlightAware ADS-B
Tue 05:13:42 PM 42.6150 -93.8270 89° East 527 606 39,000  Level FlightAware ADS-B
Tue 05:14:16 PM 42.6150 -93.7190 90° East 526 605 39,000  Level FlightAware ADS-B
Tue 05:14:53 PM 42.6160 -93.6010 89° East 526 605 39,000  Level FlightAware ADS-B
Tue 05:15:22 PM 42.6160 -93.5040 90° East 526 605 39,000  Level FlightAware ADS-B
Tue 05:16:03 PM 42.6160 -93.3690 90° East 528 608 39,000  Level FlightAware ADS-B
Tue 05:16:33 PM 42.6170 -93.2660 89° East 530 610 39,000  Level FlightAware ADS-B
Tue 05:17:08 PM 42.6170 -93.1490 90° East 529 609 39,000  Level FlightAware ADS-B
Tue 05:17:46 PM 42.6170 -93.0220 90° East 529 609 39,000  Level FlightAware ADS-B
Tue 05:18:18 PM 42.6160 -92.9180 91° East 528 608 39,000  Level FlightAware ADS-B
Tue 05:18:54 PM 42.6160 -92.7970 90° East 529 609 39,000  Level FlightAware ADS-B
Tue 05:19:30 PM 42.6160 -92.6800 90° East 530 610 39,000  Level FlightAware ADS-B
Tue 05:19:54 PM 42.6150 -92.5990 91° East 531 611 39,000  Level FlightAware ADS-B
Tue 05:20:48 PM 42.6140 -92.4510 90° East 530 610 39,000  Level FlightAware ADS-B
Tue 05:21:24 PM 42.6130 -92.3110 91° East 531 611 39,000  Level FlightAware ADS-B
Tue 05:22:00 PM 42.6120 -92.1820 91° East 531 611 39,000  Level FlightAware ADS-B
Tue 05:22:34 PM 42.6110 -92.0660 91° East 532 612 39,000  Level FlightAware ADS-B
Tue 05:22:44 PM 42.6110 -92.0340 90° East 532 612 39,000  Level FlightAware ADS-B
Tue 05:23:54 PM 42.6090 -91.8290 91° East 532 612 39,000  Level FlightAware ADS-B
Tue 05:24:30 PM 42.6070 -91.6800 91° East 531 611 39,000  Level FlightAware ADS-B
Tue 05:25:04 PM 42.6060 -91.5730 91° East 531 611 39,000  Level FlightAware ADS-B
Tue 05:25:35 PM 42.6040 -91.4700 91° East 531 611 39,000  Level FlightAware ADS-B
Tue 05:26:19 PM 42.6020 -91.3170 91° East 532 612 39,000  Level FlightAware ADS-B
Tue 05:26:58 PM 42.6000 -91.1910 91° East 532 612 39,000  Level FlightAware ADS-B
Tue 05:27:31 PM 42.5980 -91.0830 91° East 530 610 39,000  Level FlightAware ADS-B
Tue 05:28:08 PM 42.5950 -90.9580 92° East 530 610 39,000  Level FlightAware ADS-B
Tue 05:28:40 PM 42.5930 -90.8520 91° East 532 612 39,000  Level FlightAware ADS-B
Tue 05:29:17 PM 42.5910 -90.7270 91° East 534 615 39,000  Level FlightAware ADS-B
Tue 05:29:51 PM 42.5880 -90.6170 92° East 535 616 39,000  Level FlightAware ADS-B
Tue 05:30:27 PM 42.5850 -90.4930 92° East 534 615 39,000  Level FlightAware ADS-B
Tue 05:31:02 PM 42.5830 -90.3810 91° East 534 615 39,000  Level FlightAware ADS-B
Tue 05:31:35 PM 42.5800 -90.2700 92° East 534 615 39,000  Level FlightAware ADS-B
Tue 05:32:11 PM 42.5770 -90.1520 92° East 536 617 39,000  Level FlightAware ADS-B
Tue 05:32:46 PM 42.5740 -90.0280 92° East 537 618 39,000  Level FlightAware ADS-B
Tue 05:33:23 PM 42.5700 -89.9050 92° East 536 617 39,000  Level FlightAware ADS-B
Tue 05:33:55 PM 42.5670 -89.7990 92° East 534 615 39,000  Level FlightAware ADS-B
Tue 05:34:31 PM 42.5640 -89.6780 92° East 535 616 39,000  Level FlightAware ADS-B
Tue 05:35:03 PM 42.5600 -89.5710 93° East 535 616 39,000  Level FlightAware ADS-B
Tue 05:35:44 PM 42.5560 -89.4320 92° East 536 617 39,000  Level FlightAware ADS-B
Tue 05:36:11 PM 42.5530 -89.3420 93° East 537 618 39,000  Level FlightAware ADS-B
Tue 05:36:52 PM 42.5480 -89.2060 93° East 534 615 39,000  Level FlightAware ADS-B
Tue 05:37:29 PM 42.5440 -89.0820 92° East 533 613 39,000  Level FlightAware ADS-B
Tue 05:38:01 PM 42.5400 -88.9780 93° East 534 615 39,000  Level FlightAware ADS-B
Tue 05:38:36 PM 42.5360 -88.8570 93° East 536 617 39,000  Level FlightAware ADS-B
Tue 05:39:13 PM 42.5310 -88.7350 93° East 537 618 39,000  Level FlightAware ADS-B
Tue 05:39:49 PM 42.5260 -88.6120 93° East 538 619 39,000  Level FlightAware ADS-B
Tue 05:40:21 PM 42.5240 -88.5560 93° East 539 620 39,000  Level FlightAware ADS-B
Tue 05:41:11 PM 42.5150 -88.3390 93° East 534 615 39,000  Level FlightAware ADS-B
Tue 05:41:50 PM 42.5090 -88.2120 94° East 535 616 39,000  Level FlightAware ADS-B
Tue 05:42:23 PM 42.5050 -88.0990 93° East 536 617 39,000  Level FlightAware ADS-B
Tue 05:42:25 PM 42.5040 -88.0910 100° East 536 617 39,000  Level FlightAware ADS-B
Tue 05:43:27 PM 42.5000 -87.8870 91° East 534 615 39,000  Level FlightAware ADS-B
Tue 05:44:01 PM 42.5000 -87.7710 90° East 535 616 39,000  Level FlightAware ADS-B
Tue 05:44:39 PM 42.4990 -87.6440 91° East 537 618 39,000  Level FlightAware ADS-B
Tue 05:45:10 PM 42.4990 -87.5440 90° East 538 619 39,000  Level FlightAware ADS-B
Tue 05:45:42 PM 42.4990 -87.4300 90° East 537 618 39,000  Level FlightAware ADS-B
Tue 05:46:21 PM 42.4980 -87.3140 91° East 536 617 39,000  Level FlightAware ADS-B
Tue 05:46:56 PM 42.4970 -87.1870 91° East 537 618 39,000  Level FlightAware ADS-B
Tue 05:47:31 PM 42.4970 -87.0700 90° East 540 621 39,000  Level FlightAware ADS-B
Tue 05:48:06 PM 42.4950 -86.9470 91° East 541 623 39,000  Level FlightAware ADS-B
Tue 05:48:42 PM 42.4940 -86.8280 91° East 541 623 39,000  Level FlightAware ADS-B
Tue 05:49:18 PM 42.4930 -86.7110 91° East 541 623 39,000  Level FlightAware ADS-B
Tue 05:49:50 PM 42.4920 -86.5970 91° East 541 623 39,000  Level FlightAware ADS-B
Tue 05:50:26 PM 42.4900 -86.4750 91° East 542 624 39,000  Level FlightAware ADS-B
Tue 05:51:02 PM 42.4890 -86.3520 91° East 543 625 39,000  Level FlightAware ADS-B
Tue 05:51:36 PM 42.4870 -86.2370 91° East 542 624 39,000  Level FlightAware ADS-B
Tue 05:52:12 PM 42.4850 -86.1150 91° East 542 624 39,000  Level FlightAware ADS-B
Tue 05:52:45 PM 42.4830 -86.0040 91° East 542 624 39,000  Level FlightAware ADS-B
Tue 05:53:20 PM 42.4810 -85.8840 91° East 543 625 39,000  Level FlightAware ADS-B
Tue 05:53:56 PM 42.4790 -85.7630 91° East 544 626 39,000  Level FlightAware ADS-B
Tue 05:54:32 PM 42.4760 -85.6400 92° East 546 628 39,000  Level FlightAware ADS-B
Tue 05:55:08 PM 42.4740 -85.5190 91° East 545 627 39,000  Level FlightAware ADS-B
Tue 05:55:40 PM 42.4710 -85.4080 92° East 545 627 39,000  Level FlightAware ADS-B
Tue 05:56:15 PM 42.4690 -85.2920 91° East 546 628 39,000  Level FlightAware ADS-B
Tue 05:56:52 PM 42.4660 -85.1630 92° East 548 631 39,000  Level FlightAware ADS-B
Tue 05:57:26 PM 42.4630 -85.0610 92° East 549 632 39,000  Level FlightAware ADS-B
Tue 05:58:01 PM 42.4600 -84.9300 92° East 549 632 39,000  Level FlightAware ADS-B
Tue 05:58:32 PM 42.4570 -84.8260 92° East 548 631 39,000  Level FlightAware ADS-B
Tue 05:59:09 PM 42.4530 -84.6970 92° East 547 629 39,000  Level FlightAware ADS-B
Tue 05:59:45 PM 42.4490 -84.5720 92° East 548 631 39,000  Level FlightAware ADS-B
Tue 05:59:59 PM 42.4460 -84.5230 95° East 548 631 39,000  Level FlightAware ADS-B
Tue 06:01:04 PM 42.4320 -84.3050 95° East 552 635 39,000  Level FlightAware ADS-B
Tue 06:01:38 PM 42.4250 -84.1890 95° East 550 633 39,000  Level FlightAware ADS-B
Tue 06:02:25 PM 42.4150 -84.0240 95° East 548 631 39,000  Level FlightAware ADS-B
Tue 06:03:02 PM 42.4070 -83.8990 95° East 547 629 39,000  Level FlightAware ADS-B
Tue 06:03:09 PM 42.4060 -83.8760 93° East 547 629 39,000  Level FlightAware ADS-B
Tue 06:04:12 PM 42.3940 -83.6890 95° East 546 628 39,000  Level FlightAware ADS-B
Tue 06:04:50 PM 42.3850 -83.5580 95° East 546 628 39,000  Level FlightAware ADS-B
Tue 06:05:32 PM 42.3760 -83.4130 95° East 549 632 39,000  Level FlightAware ADS-B
Tue 06:06:02 PM 42.3690 -83.3150 95° East 548 631 39,000 -537 Level FlightAware ADS-B
Tue 06:06:39 PM 42.3600 -83.1870 95° East 545 627 38,400 -845 Descending FlightAware ADS-B
Tue 06:07:13 PM 42.3520 -83.0710 95° East 547 629 38,000 -316 Descending FlightAware ADS-B
Tue 06:07:55 PM 42.3420 -82.9280 95° East 551 634 38,000  Level FlightAware ADS-B
Tue 06:08:38 PM 42.3320 -82.7850 95° East 552 635 38,000  Level FlightAware ADS-B
Tue 06:09:11 PM 42.3240 -82.6710 95° East 553 636 38,000  Level FlightAware ADS-B
Tue 06:09:49 PM 42.3140 -82.5450 96° East 554 638 38,000  Level FlightAware ADS-B
Tue 06:10:29 PM 42.3040 -82.4060 96° East 552 635 38,000  Level FlightAware ADS-B
Tue 06:11:00 PM 42.2960 -82.2990 96° East 552 635 38,000  Level FlightAware ADS-B
Tue 06:11:47 PM 42.2820 -82.1250 96° East 550 633 38,000  Level FlightAware ADS-B
Tue 06:12:25 PM 42.2700 -81.9780 96° East 548 631 38,000  Level FlightAware ADS-B
Tue 06:13:02 PM 42.2600 -81.8540 96° East 548 631 38,000  Level FlightAware ADS-B
Tue 06:13:38 PM 42.2510 -81.7400 96° East 551 634 38,000  Level FlightAware ADS-B
Tue 06:14:13 PM 42.2410 -81.6160 96° East 550 633 38,000  Level FlightAware ADS-B
Tue 06:14:49 PM 42.2310 -81.4930 96° East 552 635 38,000  Level FlightAware ADS-B
Tue 06:15:29 PM 42.2190 -81.3540 97° East 553 636 38,000  Level FlightAware ADS-B
Tue 06:16:01 PM 42.2100 -81.2440 96° East 551 634 38,000  Level FlightAware ADS-B
Tue 06:16:37 PM 42.1990 -81.1220 97° East 550 633 38,000  Level FlightAware ADS-B
Tue 06:17:15 PM 42.1870 -80.9920 97° East 549 632 38,000  Level FlightAware ADS-B
Tue 06:17:47 PM 42.1780 -80.8860 97° East 548 631 38,000  Level FlightAware ADS-B
Tue 06:18:24 PM 42.1660 -80.7570 97° East 547 629 38,000  Level FlightAware ADS-B
Tue 06:18:58 PM 42.1570 -80.6540 97° East 546 628 38,000  Level FlightAware ADS-B
Tue 06:19:39 PM 42.1450 -80.5190 97° East 545 627 38,000  Level FlightAware ADS-B
Tue 06:19:58 PM 42.1380 -80.4510 98° East 545 627 38,000  Level FlightAware ADS-B
Tue 06:20:54 PM 42.1220 -80.2780 97° East 548 631 38,000  Level FlightAware ADS-B
Tue 06:21:33 PM 42.1070 -80.1260 98° East 548 631 38,000  Level FlightAware ADS-B
Tue 06:22:09 PM 42.0950 -80.0020 97° East 548 631 38,000  Level FlightAware ADS-B
Tue 06:22:45 PM 42.0830 -79.8780 97° East 549 632 38,000  Level FlightAware ADS-B
Tue 06:22:57 PM 42.0790 -79.8400 98° East 548 631 38,000  Level FlightAware ADS-B
Tue 06:23:55 PM 42.0600 -79.6420 97° East 548 631 38,000  Level FlightAware ADS-B
Tue 06:24:27 PM 42.0490 -79.5320 98° East 548 631 38,000  Level FlightAware ADS-B
Tue 06:25:05 PM 42.0360 -79.4060 98° East 546 628 38,000  Level FlightAware ADS-B
Tue 06:25:41 PM 42.0230 -79.2860 98° East 545 627 38,000  Level FlightAware ADS-B
Tue 06:26:17 PM 42.0110 -79.1650 98° East 542 624 38,000  Level FlightAware ADS-B
Tue 06:26:51 PM 41.9990 -79.0530 98° East 538 619 38,000  Level FlightAware ADS-B
Tue 06:27:27 PM 41.9860 -78.9340 98° East 537 618 38,000  Level FlightAware ADS-B
Tue 06:27:57 PM 41.9760 -78.8350 98° East 536 617 38,000  Level FlightAware ADS-B
Tue 06:28:35 PM 41.9620 -78.7090 98° East 535 616 38,000  Level FlightAware ADS-B
Tue 06:29:11 PM 41.9490 -78.5900 98° East 534 615 38,000 -167 Level FlightAware ADS-B
Tue 06:29:47 PM 41.9360 -78.4760 99° East 530 610 37,800 -627 Descending FlightAware ADS-B
Tue 06:30:18 PM 41.9250 -78.3760 98° East 527 606 37,300 -774 Descending FlightAware ADS-B
Tue 06:30:49 PM 41.9130 -78.2730 99° East 526 605 37,000 -240 Descending FlightAware ADS-B
Tue 06:31:33 PM 41.8970 -78.1320 99° East 528 608 37,000  Level FlightAware ADS-B
Tue 06:32:03 PM 41.8870 -78.0380 98° East 529 609 37,000  Level FlightAware ADS-B
Tue 06:32:40 PM 41.8730 -77.9210 99° East 532 612 37,000  Level FlightAware ADS-B
Tue 06:33:13 PM 41.8530 -77.8080 103° East 539 620 37,000  Level FlightAware ADS-B
Tue 06:33:49 PM 41.8240 -77.6950 109° East 542 624 37,000  Level FlightAware ADS-B
Tue 06:34:25 PM 41.7940 -77.5810 109° East 540 621 37,000  Level FlightAware ADS-B
Tue 06:35:01 PM 41.7640 -77.4690 110° East 536 617 37,000  Level FlightAware ADS-B
Tue 06:35:33 PM 41.7370 -77.3690 110° East 534 615 37,000  Level FlightAware ADS-B
Tue 06:36:10 PM 41.7080 -77.2600 110° East 536 617 37,000  Level FlightAware ADS-B
Tue 06:36:46 PM 41.6770 -77.1450 110° East 537 618 37,000  Level FlightAware ADS-B
Tue 06:37:19 PM 41.6490 -77.0400 110° East 535 616 37,000  Level FlightAware ADS-B
Tue 06:37:56 PM 41.6200 -76.9350 110° East 531 611 37,000  Level FlightAware ADS-B
Tue 06:38:52 PM 41.5705 -76.7530 110° East 529 609 37,000  Level FlightAware ADS-B
Tue 06:39:24 PM 41.5435 -76.6546 110° East 528 608 37,000  Level FlightAware ADS-B
Tue 06:39:56 PM 41.5164 -76.5561 110° East 525 604 37,000  Level FlightAware ADS-B
Tue 06:40:27 PM 41.4907 -76.4634 110° East 524 603 37,000  Level FlightAware ADS-B
Tue 06:40:59 PM 41.4637 -76.3659 110° East 526 605 37,000 -194 Level FlightAware ADS-B
Tue 06:41:29 PM 41.4383 -76.2749 110° East 524 603 36,800 -1,300 Descending FlightAware ADS-B
Tue 06:41:59 PM 41.4128 -76.1839 110° East 527 606 35,700 -2,476 Descending FlightAware ADS-B
Tue 06:42:32 PM 41.3851 -76.0849 110° East 530 610 34,200 -2,762 Descending FlightAware ADS-B
Tue 06:43:02 PM 41.3591 -75.9920 110° East 520 598 32,800 -2,656 Descending FlightAware ADS-B
Tue 06:43:33 PM 41.3338 -75.9033 111° Southeast 494 568 31,500 -2,557 Descending FlightAware ADS-B
Tue 06:44:03 PM 41.3100 -75.8201 111° Southeast 480 552 30,200 -2,667 Descending FlightAware ADS-B
Tue 06:44:36 PM 41.2835 -75.7277 111° Southeast 491 565 28,700 -2,531 Descending FlightAware ADS-B
Tue 06:45:07 PM 41.2562 -75.6398 112° Southeast 499 574 27,500 -2,286 Descending FlightAware ADS-B
Tue 06:45:39 PM 41.2271 -75.5516 114° Southeast 488 562 26,300 -2,286 Descending FlightAware ADS-B
Tue 06:46:10 PM 41.1989 -75.4675 114° Southeast 477 549 25,100 -2,348 Descending FlightAware ADS-B
Tue 06:46:48 PM 41.1652 -75.3671 114° Southeast 464 534 23,600 -2,400 Descending FlightAware ADS-B
Tue 06:47:20 PM 41.1378 -75.2862 114° Southeast 456 525 22,300 -2,250 Descending FlightAware ADS-B
Tue 06:47:52 PM 41.1106 -75.2057 114° Southeast 450 518 21,200 -1,258 Descending FlightAware ADS-B
Tue 06:48:22 PM 41.0851 -75.1305 114° Southeast 447 514 21,000 -197 Descending FlightAware ADS-B
Tue 06:48:53 PM 41.0591 -75.0539 114° Southeast 447 514 21,000  Level FlightAware ADS-B
Tue 06:49:23 PM 41.0331 -74.9779 114° Southeast 450 518 21,000  Level FlightAware ADS-B
Tue 06:49:48 PM 41.0120 -74.9154 114° Southeast 451 519 21,000 -308 Level FlightAware ADS-B
Tue 06:50:02 PM 41.0017 -74.8786 110° East 448 516 20,800 -923 Descending FlightAware ADS-B
Tue 06:50:14 PM 40.9951 -74.8471 106° East 445 512 20,600 -977 Descending FlightAware ADS-B
Tue 06:50:45 PM 40.9840 -74.7660 100° East 429 494 20,100 -1,065 Descending FlightAware ADS-B
Tue 06:51:16 PM 40.9759 -74.6889 98° East 409 471 19,500 -952 Descending FlightAware ADS-B
Tue 06:51:48 PM 40.9679 -74.6117 98° East 387 445 19,100 -484 Descending FlightAware ADS-B
Tue 06:52:18 PM 40.9607 -74.5443 98° East 360 414 19,000 -92 Descending FlightAware ADS-B
Tue 06:52:53 PM 40.9526 -74.4696 98° East 353 406 19,000  Level FlightAware ADS-B
Tue 06:53:24 PM 40.9452 -74.4034 98° East 354 407 19,000  Level FlightAware ADS-B
Tue 06:53:54 PM 40.9379 -74.3389 99° East 357 411 19,000  Level FlightAware ADS-B
Tue 06:54:05 PM 40.9332 -74.3144 104° East 358 412 19,000  Level FlightAware ADS-B
Tue 06:54:18 PM 40.9249 -74.2897 114° Southeast 357 411 19,000  Level FlightAware ADS-B
Tue 06:54:50 PM 40.9002 -74.2271 118° Southeast 358 412 19,000 -286 Level FlightAware ADS-B
Tue 06:55:21 PM 40.8771 -74.1681 117° Southeast 354 407 18,700 -984 Descending FlightAware ADS-B
Tue 06:55:51 PM 40.8546 -74.1102 117° Southeast 348 400 18,000 -1,448 Descending FlightAware ADS-B
Tue 06:56:19 PM 40.8347 -74.0572 116° Southeast 343 395 17,300 -1,600 Descending FlightAware ADS-B
Tue 06:56:21 PM 40.8334 -74.0538 117° Southeast 343 395 17,200 -1,636 Descending FlightAware ADS-B
Tue 06:56:52 PM 40.8126 -73.9957 115° Southeast 342 394 16,400 -1,667 Descending FlightAware ADS-B
Tue 06:56:57 PM 40.8089 -73.9855 116° Southeast 342 394 16,200 -1,692 Descending FlightAware ADS-B
Tue 06:57:31 PM 40.7858 -73.9218 116° Southeast 340 391 15,300 -1,412 Descending FlightAware ADS-B
Tue 06:58:05 PM 40.7631 -73.8598 116° Southeast 333 383 14,600 -1,333 Descending FlightAware ADS-B
Tue 06:58:07 PM 40.7617 -73.8560 116° Southeast 333 383 14,500 -1,385 Descending FlightAware ADS-B
Tue 06:58:44 PM 40.7378 -73.7901 116° Southeast 325 374 13,700 -1,350 Descending FlightAware ADS-B
Tue 06:59:27 PM 40.7080 -73.7160 118° Southeast 317 365 12,700 -1,527 Descending FlightAware ADS-B
Tue 06:59:39 PM 40.6960 -73.7020 139° Southeast 308 354 12,300 -2,400 Descending FlightAware ADS-B
Tue 07:00:12 PM 40.6508 -73.6804 160° South 321 369 10,900 -2,553 Descending FlightAware ADS-B
Tue 07:00:26 PM 40.6327 -73.6738 165° South 298 343 10,300 -2,595 Descending FlightAware ADS-B
Tue 07:00:49 PM 40.6026 -73.6631 165° South 294 338 9,300 -2,462 Descending FlightAware ADS-B
Tue 07:01:05 PM 40.5810 -73.6552 164° South 294 338 8,700 -1,818 Descending FlightAware ADS-B
Tue 07:01:22 PM 40.5583 -73.6470 165° South 294 338 8,300 -1,273 Descending FlightAware ADS-B
Tue 07:01:38 PM 40.5381 -73.6403 166° South 290 334 8,000 -968 Descending FlightAware ADS-B
Tue 07:01:53 PM 40.5189 -73.6342 166° South 285 328 7,800 -400 Descending FlightAware ADS-B
Tue 07:02:08 PM 40.4992 -73.6280 167° South 285 328 7,800  Level FlightAware ADS-B
Tue 07:02:23 PM 40.4798 -73.6218 166° South 286 329 7,800 -182 Level FlightAware ADS-B
Tue 07:02:41 PM 40.4565 -73.6143 166° South 287 330 7,700 -514 Descending FlightAware ADS-B
Tue 07:02:58 PM 40.4349 -73.6072 166° South 283 326 7,500 -882 Descending FlightAware ADS-B
Tue 07:03:15 PM 40.4138 -73.6008 167° South 282 325 7,200 -1,000 Descending FlightAware ADS-B
Tue 07:03:22 PM 40.4046 -73.5988 171° South 279 321 7,100 -1,200 Descending FlightAware ADS-B
Tue 07:03:40 PM 40.3821 -73.6039 190° South 277 319 6,700 -1,543 Descending FlightAware ADS-B
Tue 07:03:57 PM 40.3623 -73.6161 205° Southwest 275 316 6,200 -1,622 Descending FlightAware ADS-B
Tue 07:04:17 PM 40.3427 -73.6360 218° Southwest 273 314 5,700 -1,448 Descending FlightAware ADS-B
Tue 07:04:55 PM 40.3224 -73.6928 245° Southwest 272 313 4,800 -1,352 Descending FlightAware ADS-B
Tue 07:05:28 PM 40.3190 -73.7460 265° West 268 308 4,100 -1,138 Descending FlightAware ADS-B
Tue 07:05:53 PM 40.3180 -73.7820 268° West 264 304 3,700 -980 Descending FlightAware ADS-B
Tue 07:06:17 PM 40.3170 -73.8230 268° West 258 297 3,300 -900 Descending FlightAware ADS-B
Tue 07:06:53 PM 40.3227 -73.8780 278° West 268 308 2,800 -545 Descending FlightAware ADS-B
Tue 07:07:12 PM 40.3296 -73.9047 289° West 238 274 2,800  Level FlightAware ADS-B
Tue 07:07:31 PM 40.3360 -73.9283 290° West 219 252 2,800  Level FlightAware ADS-B
Tue 07:07:47 PM 40.3415 -73.9482 290° West 210 242 2,800  Level FlightAware ADS-B
Tue 07:08:11 PM 40.3493 -73.9765 290° West 209 241 2,800  Level FlightAware ADS-B
Tue 07:08:24 PM 40.3541 -73.9913 293° West 210 242 2,800  Level FlightAware ADS-B
Tue 07:08:41 PM 40.3668 -74.0063 318° Northwest 219 252 2,800  Level FlightAware ADS-B
Tue 07:08:49 PM 40.3745 -74.0095 342° North 224 258 2,800  Level FlightAware ADS-B
Tue 07:09:00 PM 40.3860 -74.0090 North 224 258 2,800  Level FlightAware ADS-B
Tue 07:09:24 PM 40.4098 -74.0017 13° North 221 254 2,800  Level FlightAware ADS-B
Tue 07:09:56 PM 40.4393 -73.9917 14° North 193 222 2,800  Level FlightAware ADS-B
Tue 07:10:41 PM 40.4767 -73.9796 14° North 189 217 2,800  Level FlightAware ADS-B
Tue 07:11:12 PM 40.5010 -73.9720 13° North 188 216 2,800  Level FlightAware ADS-B
Tue 07:11:32 PM 40.5180 -73.9670 13° North 189 217 2,800 -158 Level FlightAware ADS-B
Tue 07:11:50 PM 40.5310 -73.9600 22° Northeast 190 219 2,700 -444 Descending FlightAware ADS-B
Tue 07:11:59 PM 40.5390 -73.9540 30° Northeast 191 220 2,600 -667 Descending FlightAware ADS-B
Tue 07:12:17 PM 40.5500 -73.9460 29° Northeast 192 221 2,400 -682 Descending FlightAware ADS-B
Tue 07:12:43 PM 40.5700 -73.9300 31° Northeast 192 221 2,100 -824 Descending FlightAware ADS-B
Tue 07:13:08 PM 40.5920 -73.9110 33° Northeast 186 214 1,700 -933 Descending FlightAware ADS-B
Tue 07:13:28 PM 40.6060 -73.8990 33° Northeast 172 198 1,400 -667 Descending FlightAware ADS-B
Tue 07:13:44 PM 40.6170 -73.8910 29° Northeast 156 180 1,300 -706 Descending FlightAware ADS-B
Tue 07:14:02 PM 40.6280 -73.8830 29° Northeast 151 174 1,000 -769 Descending FlightAware ADS-B
Tue 07:14:23 PM 40.6410 -73.8720 33° Northeast 149 171 800 -522 Descending FlightAware ADS-B
Tue 07:14:48 PM 40.6560 -73.8610 29° Northeast 146 168 600 -267 Descending FlightAware ADS-B
Tue 07:15:08 PM 40.6660 -73.8530 31° Northeast 146 168 600  Level FlightAware ADS-B
Tue 07:15:15 PM 40.6700 -73.8470 49° Northeast 142 163 600  Level FlightAware ADS-B
Tue 07:15:19 PM 40.6700 -73.8440 90° East 140 161 600 -500 Level FlightAware ADS-B
Tue 07:15:27 PM 40.6710 -73.8370 79° East 136 157 500 -176 Descending FlightAware ADS-B
Tue 07:15:53 PM 40.6710 -73.8190 90° East 136 157 500 -500 Level FlightAware ADS-B
Tue 07:16:03 PM 40.6660 -73.8080 121° Southeast 131 151 200 -1,800 Descending FlightAware ADS-B
Tue 07:16:23 PM 40.6600 -73.7950 121° Southeast 128 147 -600 Descending FlightAware ADS-B
Tue 07:16:31 PM 40.6570 -73.7890 123° Southeast 128 147  Level FlightAware ADS-B
Tue 07:16:59 PM 40.6500 -73.7730 120° Southeast 76 87  Level FlightAware ADS-B

Login

Don't have an account? Register now (free) for customized features, flight alerts, and more!